Time;durP1;ratioP1;P1;durP2;ratioP2;P2;SDS_P1;SDS_P2;PMS_P1;PMS_P2;Temp;Humidity;BMP_temperature;BMP_pressure;BME280_temperature;BME280_humidity;BME280_pressure;Samples;Min_cycle;Max_cycle;Signal;HPM_P1;HPM_P2
2021/10/02 00:45:32;;;;;;;5.43;4.25;;;23.10;51.80;;;;;;6225425;28;82262;-63
2021/10/02 00:48:33;;;;;;;5.95;4.00;;;23.10;52.00;;;;;;6233728;27;80528;-63
2021/10/02 00:51:33;;;;;;;4.30;3.90;;;23.20;51.50;;;;;;6232843;27;84476;-63
2021/10/02 00:54:34;;;;;;;4.80;3.67;;;23.10;51.60;;;;;;6227808;28;81363;-62
2021/10/02 00:57:34;;;;;;;4.63;3.70;;;23.20;51.70;;;;;;6234082;27;80534;-63
2021/10/02 01:00:35;;;;;;;4.28;3.65;;;23.10;51.30;;;;;;6233782;27;81673;-62
2021/10/02 01:03:35;;;;;;;4.25;3.85;;;23.10;51.50;;;;;;6235179;28;80382;-62
2021/10/02 01:06:36;;;;;;;5.18;3.92;;;23.10;51.60;;;;;;6232862;27;80547;-62
2021/10/02 01:09:37;;;;;;;4.57;3.85;;;23.10;51.60;;;;;;6230762;27;80301;-62
2021/10/02 01:12:37;;;;;;;4.10;3.70;;;23.10;51.40;;;;;;6233399;27;81004;-63
2021/10/02 01:15:38;;;;;;;3.65;3.10;;;23.10;51.10;;;;;;6232520;27;81060;-62
2021/10/02 01:18:38;;;;;;;4.97;3.47;;;23.10;51.00;;;;;;6223756;28;81315;-62
2021/10/02 01:21:39;;;;;;;3.58;3.13;;;23.10;51.10;;;;;;6232923;27;80586;-62
2021/10/02 01:24:40;;;;;;;5.03;3.83;;;23.10;51.20;;;;;;6233260;27;80420;-62
2021/10/02 01:27:41;;;;;;;4.25;3.60;;;23.10;51.10;;;;;;6226097;27;80322;-61
2021/10/02 01:34:07;;;;;;;6.85;3.63;;;23.10;50.80;;;;;;6232284;27;80292;-62
2021/10/02 01:37:17;;;;;;;4.15;3.30;;;23.10;51.20;;;;;;6233001;27;80580;-62
2021/10/02 01:47:10;;;;;;;4.97;3.60;;;23.10;50.70;;;;;;6231462;27;80587;-62
2021/10/02 01:50:11;;;;;;;3.90;3.35;;;23.10;50.90;;;;;;6231168;27;80669;-62
2021/10/02 01:53:12;;;;;;;3.72;3.38;;;23.10;50.60;;;;;;6232653;27;80523;-61
2021/10/02 01:56:12;;;;;;;4.18;3.33;;;23.10;51.30;;;;;;6232313;27;80486;-62
2021/10/02 01:59:13;;;;;;;3.72;3.22;;;23.10;50.80;;;;;;6231523;27;81153;-62
2021/10/02 02:02:13;;;;;;;3.50;3.20;;;23.10;50.50;;;;;;6229537;28;81773;-61
2021/10/02 02:05:13;;;;;;;4.38;3.40;;;23.10;50.10;;;;;;6231751;27;81460;-62
2021/10/02 02:08:14;;;;;;;3.53;3.20;;;23.10;50.40;;;;;;6227829;27;81967;-63
2021/10/02 02:11:15;;;;;;;3.17;2.88;;;23.10;50.40;;;;;;6232339;27;80396;-62
2021/10/02 02:14:15;;;;;;;4.20;3.50;;;23.10;50.40;;;;;;6233012;27;81591;-62
2021/10/02 02:17:16;;;;;;;6.82;3.55;;;23.10;50.20;;;;;;6221923;27;80615;-62
2021/10/02 02:20:16;;;;;;;5.47;3.30;;;23.10;50.40;;;;;;6233460;27;81352;-62
2021/10/02 02:23:17;;;;;;;4.50;3.45;;;23.10;50.20;;;;;;6233754;27;80772;-62
2021/10/02 02:26:17;;;;;;;3.60;3.17;;;23.00;50.60;;;;;;6219885;28;80761;-62
2021/10/02 02:29:18;;;;;;;3.70;3.20;;;23.00;49.80;;;;;;6231559;27;80442;-62
2021/10/02 02:32:18;;;;;;;4.90;3.35;;;23.00;49.80;;;;;;6229602;27;82307;-62
2021/10/02 02:35:19;;;;;;;3.95;3.50;;;23.00;50.30;;;;;;6230982;27;80361;-62
2021/10/02 02:38:19;;;;;;;5.15;3.42;;;23.00;49.70;;;;;;6229316;27;83084;-62
2021/10/02 02:41:20;;;;;;;3.35;3.05;;;23.00;49.80;;;;;;6231995;27;81333;-62
2021/10/02 02:44:20;;;;;;;3.20;2.90;;;23.00;50.00;;;;;;6224978;27;82892;-62
2021/10/02 02:47:21;;;;;;;3.35;3.05;;;23.00;50.20;;;;;;6229676;28;80399;-62
2021/10/02 02:50:21;;;;;;;3.65;3.22;;;23.00;50.30;;;;;;6232252;27;82706;-62
2021/10/02 02:53:22;;;;;;;4.18;3.40;;;23.10;50.40;;;;;;6231567;28;81688;-62
2021/10/02 02:56:23;;;;;;;3.80;3.20;;;23.10;50.50;;;;;;6231692;27;80459;-62
2021/10/02 02:59:23;;;;;;;4.22;3.33;;;23.10;50.50;;;;;;6228493;27;80645;-62
2021/10/02 03:02:24;;;;;;;3.47;3.10;;;23.10;50.40;;;;;;6229858;28;80503;-62
2021/10/02 03:05:24;;;;;;;3.33;3.03;;;23.10;50.50;;;;;;6230401;27;82797;-62
2021/10/02 03:08:25;;;;;;;3.35;2.88;;;23.20;50.50;;;;;;6229660;27;80519;-62
2021/10/02 03:11:25;;;;;;;3.20;2.90;;;23.10;50.50;;;;;;6229424;28;81109;-62
2021/10/02 03:14:26;;;;;;;3.45;2.90;;;23.20;50.60;;;;;;6232140;27;80992;-62
2021/10/02 03:17:26;;;;;;;3.38;2.90;;;23.20;50.60;;;;;;6229912;28;80203;-62
2021/10/02 03:20:27;;;;;;;3.28;2.78;;;23.20;50.50;;;;;;6229582;27;81471;-62
2021/10/02 03:23:27;;;;;;;2.67;2.47;;;23.20;50.50;;;;;;6224938;28;80016;-62
2021/10/02 03:26:28;;;;;;;3.15;2.72;;;23.20;50.50;;;;;;6224028;28;81377;-62
2021/10/02 03:29:28;;;;;;;3.17;2.88;;;23.20;50.50;;;;;;6222229;28;81535;-62
2021/10/02 03:32:29;;;;;;;3.75;3.30;;;23.20;50.40;;;;;;6229610;28;81597;-62
2021/10/02 03:35:29;;;;;;;3.45;2.67;;;23.30;50.40;;;;;;6231124;28;81758;-62
2021/10/02 03:38:30;;;;;;;3.28;2.90;;;23.30;50.40;;;;;;6230701;28;80293;-62
2021/10/02 03:41:30;;;;;;;3.47;3.17;;;23.30;50.30;;;;;;6226934;27;80893;-62
2021/10/02 03:44:31;;;;;;;3.47;3.03;;;23.30;50.20;;;;;;6222102;27;80360;-62
2021/10/02 03:47:31;;;;;;;3.03;2.70;;;23.30;50.20;;;;;;6229781;27;81823;-63
2021/10/02 03:50:32;;;;;;;3.65;2.88;;;23.30;50.20;;;;;;6230614;28;80483;-60
2021/10/02 03:53:32;;;;;;;3.58;2.90;;;23.30;50.20;;;;;;6219857;27;80422;-61
2021/10/02 03:56:33;;;;;;;3.30;2.78;;;23.30;50.10;;;;;;6227860;28;80745;-60
2021/10/02 03:59:34;;;;;;;3.72;3.00;;;23.30;50.10;;;;;;6229367;28;81019;-60
2021/10/02 04:02:34;;;;;;;3.60;3.10;;;23.30;50.10;;;;;;6236553;28;80829;-60
2021/10/02 04:05:35;;;;;;;3.10;2.80;;;23.30;50.10;;;;;;6233096;27;82683;-61
2021/10/02 04:08:35;;;;;;;3.40;3.03;;;23.30;50.10;;;;;;6235529;27;80811;-60
2021/10/02 04:11:36;;;;;;;3.42;2.72;;;23.30;50.10;;;;;;6222858;27;81323;-61
2021/10/02 04:14:36;;;;;;;3.33;2.90;;;23.30;50.20;;;;;;6230256;27;80568;-62
2021/10/02 04:17:37;;;;;;;3.85;3.20;;;23.40;50.10;;;;;;6221091;28;83246;-62
2021/10/02 04:20:37;;;;;;;3.95;3.55;;;23.40;50.10;;;;;;6221018;27;80293;-61
2021/10/02 04:23:38;;;;;;;3.13;2.83;;;23.30;50.10;;;;;;6221176;28;82033;-61
2021/10/02 04:26:38;;;;;;;2.72;2.50;;;23.40;50.10;;;;;;6230820;27;81670;-62
2021/10/02 04:29:39;;;;;;;3.92;3.33;;;23.40;50.10;;;;;;6230668;27;81229;-62
2021/10/02 04:32:39;;;;;;;3.42;3.00;;;23.40;50.10;;;;;;6229382;28;82167;-61
2021/10/02 04:35:40;;;;;;;3.45;2.85;;;23.40;50.20;;;;;;6234668;27;80451;-63
2021/10/02 04:38:40;;;;;;;3.03;2.60;;;23.40;50.20;;;;;;6227352;28;80464;-64
2021/10/02 04:41:41;;;;;;;5.45;2.92;;;23.40;50.40;;;;;;6231441;27;81425;-63
2021/10/02 04:44:42;;;;;;;3.45;3.00;;;23.40;50.20;;;;;;6233049;27;81604;-62
2021/10/02 04:47:42;;;;;;;6.53;2.50;;;23.40;50.20;;;;;;6233154;28;81729;-64
2021/10/02 04:50:43;;;;;;;3.42;2.70;;;23.40;50.00;;;;;;6231422;27;80358;-63
2021/10/02 04:53:43;;;;;;;3.22;2.92;;;23.40;49.90;;;;;;6234422;27;80504;-62
2021/10/02 04:56:44;;;;;;;3.97;3.00;;;23.40;49.90;;;;;;6230017;27;81658;-64
2021/10/02 04:59:44;;;;;;;3.63;2.95;;;23.40;49.70;;;;;;6225127;28;81377;-63
2021/10/02 05:02:45;;;;;;;4.47;3.28;;;23.40;49.60;;;;;;6233091;28;81741;-64
2021/10/02 05:05:45;;;;;;;4.18;3.30;;;23.40;49.60;;;;;;6235410;27;81076;-64
2021/10/02 05:08:48;;;;;;;4.88;3.25;;;23.50;49.70;;;;;;6240874;27;81825;-64
2021/10/02 05:11:48;;;;;;;3.85;3.15;;;23.50;49.40;;;;;;6230176;27;80271;-64
2021/10/02 05:14:49;;;;;;;3.65;3.00;;;23.50;49.70;;;;;;6232540;28;80076;-64
2021/10/02 05:17:49;;;;;;;3.60;2.97;;;23.40;49.20;;;;;;6228005;28;81485;-64
2021/10/02 05:20:50;;;;;;;4.50;3.33;;;23.40;49.50;;;;;;6220787;27;80641;-63
2021/10/02 05:23:50;;;;;;;6.38;3.17;;;23.40;49.30;;;;;;6227135;27;80897;-64
2021/10/02 05:26:51;;;;;;;7.03;3.38;;;23.50;49.50;;;;;;6231979;27;81136;-64
2021/10/02 05:29:51;;;;;;;7.45;3.83;;;23.40;50.80;;;;;;6233029;27;80545;-64
2021/10/02 05:32:52;;;;;;;4.63;3.03;;;23.40;50.60;;;;;;6223170;28;81767;-64
2021/10/02 05:35:54;;;;;;;7.78;3.22;;;23.40;51.40;;;;;;6227513;28;81337;-64
2021/10/02 05:38:54;;;;;;;5.97;3.42;;;23.40;52.10;;;;;;6233910;27;80872;-66
2021/10/02 05:41:55;;;;;;;3.85;3.30;;;23.40;52.60;;;;;;6223476;28;81903;-64
2021/10/02 05:44:55;;;;;;;4.55;2.72;;;23.40;52.80;;;;;;6214402;27;80487;-64
2021/10/02 05:47:56;;;;;;;6.82;3.50;;;23.40;53.20;;;;;;6211077;28;81999;-64
2021/10/02 05:50:56;;;;;;;4.65;3.47;;;23.40;53.50;;;;;;6233288;28;80569;-66
2021/10/02 05:53:57;;;;;;;4.22;3.58;;;23.40;53.80;;;;;;6232800;28;80777;-63
2021/10/02 05:56:57;;;;;;;7.35;3.10;;;23.40;53.80;;;;;;6229249;27;82060;-64
2021/10/02 05:59:58;;;;;;;6.93;3.20;;;23.40;53.40;;;;;;6231750;27;81612;-63
2021/10/02 06:03:01;;;;;;;4.38;3.15;;;23.40;53.30;;;;;;6219067;28;81344;-63
2021/10/02 06:06:01;;;;;;;3.08;2.58;;;23.50;53.20;;;;;;6225622;27;80769;-65
2021/10/02 06:09:02;;;;;;;3.88;3.00;;;23.40;52.90;;;;;;6226608;27;81184;-65
2021/10/02 06:12:02;;;;;;;2.78;2.45;;;23.40;52.90;;;;;;6226447;27;80282;-63
2021/10/02 06:15:03;;;;;;;5.22;2.88;;;23.40;52.60;;;;;;6225818;27;81022;-64
2021/10/02 06:18:03;;;;;;;3.15;2.47;;;23.40;52.30;;;;;;6231167;28;80635;-64
2021/10/02 06:21:06;;;;;;;5.82;2.83;;;23.40;52.30;;;;;;6224208;28;81712;-64
2021/10/02 06:24:07;;;;;;;4.80;3.17;;;23.40;52.20;;;;;;6220915;27;82336;-64
2021/10/02 06:27:07;;;;;;;4.78;3.20;;;23.40;52.10;;;;;;6228348;27;80646;-65
2021/10/02 06:30:08;;;;;;;3.78;2.92;;;23.50;52.30;;;;;;6227519;28;81749;-66
2021/10/02 06:33:08;;;;;;;4.50;3.25;;;23.50;52.00;;;;;;6229499;27;80360;-66
2021/10/02 06:36:09;;;;;;;5.63;3.38;;;23.40;53.10;;;;;;6231893;27;80912;-66
2021/10/02 06:39:09;;;;;;;9.40;3.47;;;23.50;54.10;;;;;;6228342;28;82589;-65
2021/10/02 06:42:10;;;;;;;4.90;3.00;;;23.50;53.20;;;;;;6227515;28;80616;-65
2021/10/02 06:45:10;;;;;;;3.92;3.08;;;23.50;53.40;;;;;;6234132;27;83312;-67
2021/10/02 06:48:11;;;;;;;6.80;3.45;;;23.50;53.60;;;;;;6227217;27;80558;-66
2021/10/02 06:51:11;;;;;;;7.95;3.85;;;23.50;53.50;;;;;;6229411;28;82179;-67
2021/10/02 06:54:12;;;;;;;6.93;3.80;;;23.50;53.30;;;;;;6222037;28;80243;-66
2021/10/02 06:57:13;;;;;;;12.00;3.63;;;23.50;53.10;;;;;;6223778;28;82234;-65
2021/10/02 07:00:13;;;;;;;6.80;3.78;;;23.50;53.30;;;;;;6221161;27;82359;-65
2021/10/02 07:03:14;;;;;;;6.95;3.78;;;23.50;53.10;;;;;;6222370;27;80382;-65
2021/10/02 07:06:15;;;;;;;6.93;3.95;;;23.50;53.30;;;;;;6216583;28;80508;-66
2021/10/02 07:09:15;;;;;;;9.05;3.60;;;23.50;53.80;;;;;;6216872;28;83014;-66
2021/10/02 07:12:16;;;;;;;7.97;3.80;;;23.50;54.30;;;;;;6216703;28;81926;-66
2021/10/02 07:15:16;;;;;;;7.93;3.65;;;23.50;54.50;;;;;;6224797;28;80177;-66
2021/10/02 07:18:17;;;;;;;6.53;3.80;;;23.50;54.60;;;;;;6222666;27;80647;-64
2021/10/02 07:21:18;;;;;;;8.75;4.05;;;23.50;54.50;;;;;;6219099;28;81918;-64
2021/10/02 07:24:18;;;;;;;8.10;3.50;;;23.50;54.50;;;;;;6220044;28;83753;-63
2021/10/02 07:27:19;;;;;;;9.07;3.75;;;23.60;54.50;;;;;;6211922;28;81300;-64
2021/10/02 07:30:19;;;;;;;10.23;3.47;;;23.60;54.50;;;;;;6222277;28;80435;-63
2021/10/02 07:33:20;;;;;;;10.18;4.55;;;23.60;54.50;;;;;;6218516;28;82029;-63
2021/10/02 07:36:21;;;;;;;9.23;3.83;;;23.60;54.50;;;;;;6236001;28;80396;-63
2021/10/02 07:39:22;;;;;;;7.50;3.28;;;23.60;54.20;;;;;;6226952;28;81537;-63
2021/10/02 07:42:22;;;;;;;4.15;3.00;;;23.70;54.00;;;;;;6222964;27;80489;-63
2021/10/02 07:45:23;;;;;;;8.48;3.67;;;23.80;54.10;;;;;;6220233;28;81510;-64
2021/10/02 07:48:26;;;;;;;4.70;3.33;;;23.80;54.70;;;;;;6228368;28;80372;-63
2021/10/02 07:51:27;;;;;;;6.55;3.28;;;23.80;53.90;;;;;;6225725;28;80937;-63
2021/10/02 07:54:27;;;;;;;6.13;3.40;;;23.90;54.00;;;;;;6230492;28;81440;-64
2021/10/02 07:57:28;;;;;;;5.60;3.38;;;23.90;54.00;;;;;;6224901;28;80980;-61
2021/10/02 08:00:28;;;;;;;5.80;3.20;;;23.90;53.90;;;;;;6227706;28;80473;-62
2021/10/02 08:03:29;;;;;;;7.22;3.38;;;23.90;53.90;;;;;;6226086;28;80591;-62
2021/10/02 08:06:29;;;;;;;5.35;3.60;;;23.90;53.80;;;;;;6219228;27;80884;-63
2021/10/02 08:09:30;;;;;;;6.65;3.20;;;24.00;53.90;;;;;;6226449;28;81004;-63
2021/10/02 08:12:30;;;;;;;5.20;3.67;;;24.00;53.90;;;;;;6221928;28;80858;-63
2021/10/02 08:15:31;;;;;;;5.50;3.40;;;24.00;53.90;;;;;;6225011;28;82312;-63
2021/10/02 08:18:36;;;;;;;4.13;3.38;;;24.00;54.00;;;;;;6219730;28;80446;-63
2021/10/02 08:21:36;;;;;;;6.23;3.77;;;24.10;54.10;;;;;;6222906;28;81702;-62
2021/10/02 08:24:39;;;;;;;5.70;3.22;;;24.10;54.00;;;;;;6221168;28;80527;-61
2021/10/02 08:27:39;;;;;;;6.47;3.60;;;24.10;54.20;;;;;;6220777;28;80321;-62
2021/10/02 08:30:40;;;;;;;4.78;3.70;;;24.10;54.30;;;;;;6226879;28;86365;-63
2021/10/02 08:33:40;;;;;;;113.68;43.20;;;24.10;54.40;;;;;;6218802;28;80495;-63
2021/10/02 08:36:40;;;;;;;232.80;85.53;;;24.10;54.40;;;;;;6219150;28;83389;-63
2021/10/02 08:39:41;;;;;;;169.88;63.65;;;24.10;54.40;;;;;;6223740;28;83132;-63
2021/10/02 08:42:42;;;;;;;209.57;80.60;;;24.20;54.50;;;;;;6218323;28;83580;-63
2021/10/02 08:45:42;;;;;;;274.40;98.20;;;24.20;54.50;;;;;;6224207;28;84267;-63
2021/10/02 08:48:43;;;;;;;341.13;123.95;;;24.10;54.60;;;;;;6222574;28;83651;-64
2021/10/02 08:51:47;;;;;;;415.40;152.88;;;24.20;54.70;;;;;;6224853;28;85720;-63
2021/10/02 08:54:52;;;;;;;421.48;156.65;;;24.20;54.70;;;;;;6224185;28;85302;-63
2021/10/02 08:57:52;;;;;;;399.50;151.65;;;24.30;54.70;;;;;;6224579;27;85349;-63
2021/10/02 09:00:53;;;;;;;431.23;157.98;;;24.30;54.70;;;;;;6224155;28;87270;-63
2021/10/02 09:03:53;;;;;;;395.10;155.20;;;24.30;54.80;;;;;;6222711;28;85742;-62
2021/10/02 09:06:54;;;;;;;369.05;146.57;;;24.30;54.90;;;;;;6224037;28;85604;-62
2021/10/02 09:09:54;;;;;;;354.85;134.30;;;24.30;54.90;;;;;;6222001;27;85402;-63
2021/10/02 09:12:55;;;;;;;316.77;121.95;;;24.30;54.90;;;;;;6220037;28;86523;-65
2021/10/02 09:15:55;;;;;;;238.50;95.93;;;24.30;54.80;;;;;;6222774;27;85861;-63
2021/10/02 09:18:56;;;;;;;201.30;81.00;;;24.30;54.30;;;;;;6225706;28;85548;-63
2021/10/02 09:21:57;;;;;;;205.15;80.30;;;24.30;54.10;;;;;;6224091;27;83598;-65
2021/10/02 09:24:57;;;;;;;176.70;73.38;;;24.30;53.90;;;;;;6222932;28;84068;-64
2021/10/02 09:27:58;;;;;;;152.50;61.53;;;24.20;53.70;;;;;;6227871;28;83184;-63
2021/10/02 09:30:58;;;;;;;139.13;61.75;;;24.20;53.60;;;;;;6224894;28;83466;-62
2021/10/02 09:33:59;;;;;;;145.25;57.25;;;24.20;53.30;;;;;;6220956;28;83417;-63
2021/10/02 09:36:59;;;;;;;130.30;54.28;;;24.20;53.20;;;;;;6225005;28;83495;-63
2021/10/02 09:40:00;;;;;;;122.43;52.47;;;24.20;53.30;;;;;;6222215;27;88720;-64
2021/10/02 09:43:00;;;;;;;112.97;48.65;;;24.20;53.10;;;;;;6221669;28;83508;-63
2021/10/02 09:46:01;;;;;;;102.15;43.60;;;24.20;53.40;;;;;;6225644;28;83616;-64
2021/10/02 09:49:02;;;;;;;104.32;45.53;;;24.30;53.00;;;;;;6226351;27;82736;-66
2021/10/02 09:52:02;;;;;;;89.18;39.90;;;24.30;53.20;;;;;;6200829;27;83332;-65
2021/10/02 09:55:03;;;;;;;106.32;41.70;;;24.30;53.00;;;;;;6224946;28;83569;-65
2021/10/02 09:58:04;;;;;;;94.93;39.45;;;24.30;53.50;;;;;;6224593;28;83478;-65
2021/10/02 10:01:04;;;;;;;90.18;37.17;;;24.30;53.60;;;;;;6220487;28;84031;-65
2021/10/02 10:04:05;;;;;;;83.88;36.78;;;24.30;53.70;;;;;;6221636;28;83989;-65
2021/10/02 10:07:05;;;;;;;79.43;35.53;;;24.30;53.80;;;;;;6223483;27;84116;-66
2021/10/02 10:10:06;;;;;;;73.20;34.20;;;24.30;53.80;;;;;;6226865;28;84094;-67
2021/10/02 10:13:07;;;;;;;69.38;29.63;;;24.30;53.80;;;;;;6220340;28;83073;-66
2021/10/02 10:16:07;;;;;;;72.43;30.65;;;24.40;53.20;;;;;;6221470;28;85779;-66
2021/10/02 10:19:08;;;;;;;58.53;26.05;;;24.40;53.30;;;;;;6224592;28;83022;-65
2021/10/02 10:22:08;;;;;;;51.05;26.65;;;24.40;53.20;;;;;;6226194;28;86159;-65
2021/10/02 10:25:09;;;;;;;58.42;24.77;;;24.40;53.40;;;;;;6226755;27;83563;-65
2021/10/02 10:28:10;;;;;;;48.50;23.45;;;24.40;53.70;;;;;;6222825;28;85501;-65
2021/10/02 10:31:10;;;;;;;43.00;21.92;;;24.50;54.10;;;;;;6224714;28;83092;-65
2021/10/02 10:34:11;;;;;;;43.60;21.02;;;24.50;53.70;;;;;;6221518;28;83003;-64
2021/10/02 10:37:12;;;;;;;48.13;21.48;;;24.50;53.70;;;;;;6221929;28;82910;-65
2021/10/02 10:40:12;;;;;;;47.28;20.75;;;24.50;53.70;;;;;;6221537;28;83271;-65
2021/10/02 10:43:13;;;;;;;37.72;19.88;;;24.60;53.60;;;;;;6224312;28;85166;-65
2021/10/02 10:46:13;;;;;;;34.22;17.90;;;24.60;53.30;;;;;;6218482;28;84272;-65
2021/10/02 10:49:14;;;;;;;38.40;18.58;;;24.60;53.30;;;;;;6221225;27;83129;-64
2021/10/02 10:52:15;;;;;;;32.58;16.38;;;24.60;52.80;;;;;;6200415;27;83513;-65
2021/10/02 10:55:16;;;;;;;23.70;13.05;;;24.70;52.80;;;;;;6200538;28;88718;-65
2021/10/02 10:58:16;;;;;;;23.25;12.20;;;24.70;49.00;;;;;;6225208;27;83587;-65
2021/10/02 11:01:17;;;;;;;21.48;12.70;;;24.70;49.10;;;;;;6222661;27;83168;-65
2021/10/02 11:04:17;;;;;;;22.80;12.70;;;24.70;48.70;;;;;;6218722;28;83730;-65
2021/10/02 11:07:18;;;;;;;16.02;12.10;;;24.60;49.90;;;;;;6217735;28;84434;-65
2021/10/02 11:10:19;;;;;;;18.88;11.73;;;24.70;48.70;;;;;;6220549;28;82758;-66
2021/10/02 11:13:19;;;;;;;16.35;11.10;;;24.70;48.30;;;;;;6224769;28;83820;-65
2021/10/02 11:16:20;;;;;;;21.08;12.18;;;24.70;47.20;;;;;;6222948;28;83144;-64
2021/10/02 11:19:20;;;;;;;18.77;12.07;;;24.70;46.60;;;;;;6216699;27;85585;-65
2021/10/02 11:22:26;;;;;;;19.15;10.43;;;24.70;46.90;;;;;;6220738;28;83669;-65
2021/10/02 11:25:27;;;;;;;14.13;11.10;;;24.80;45.70;;;;;;6220139;28;83332;-64
2021/10/02 11:28:28;;;;;;;16.92;11.18;;;24.80;46.60;;;;;;6219401;28;83679;-64
2021/10/02 11:31:29;;;;;;;14.70;10.48;;;24.80;47.00;;;;;;6221589;27;83121;-64
2021/10/02 11:34:29;;;;;;;13.07;10.45;;;24.70;46.80;;;;;;6215321;28;84075;-63
2021/10/02 11:37:30;;;;;;;12.52;9.68;;;24.80;46.00;;;;;;6220851;28;83478;-63
2021/10/02 11:40:30;;;;;;;20.02;10.57;;;24.90;46.70;;;;;;6218419;28;83814;-63
2021/10/02 11:43:31;;;;;;;17.55;9.85;;;24.90;47.00;;;;;;6222816;28;83404;-63
2021/10/02 11:46:32;;;;;;;14.32;10.65;;;25.00;45.90;;;;;;6229065;28;84055;-63
2021/10/02 11:49:32;;;;;;;15.18;9.38;;;25.00;45.40;;;;;;6223772;27;82919;-63
2021/10/02 11:52:33;;;;;;;13.43;10.20;;;25.00;45.60;;;;;;6226511;28;83018;-62
2021/10/02 11:55:36;;;;;;;15.55;9.98;;;25.00;43.70;;;;;;6220937;27;83405;-63
2021/10/02 11:58:37;;;;;;;12.27;10.00;;;25.00;44.80;;;;;;6218296;28;83538;-63
2021/10/02 12:01:37;;;;;;;14.45;9.60;;;25.00;45.60;;;;;;6207996;28;84682;-62
2021/10/02 12:04:38;;;;;;;12.20;9.57;;;25.00;47.70;;;;;;6218348;28;83105;-63
2021/10/02 12:07:39;;;;;;;14.10;10.00;;;25.10;46.50;;;;;;6226000;28;81591;-63
2021/10/02 12:10:39;;;;;;;21.08;8.93;;;25.10;46.90;;;;;;6221661;28;82826;-64
2021/10/02 12:13:40;;;;;;;11.63;9.40;;;25.10;46.40;;;;;;6223165;28;82921;-61
2021/10/02 12:16:40;;;;;;;16.30;9.48;;;25.10;45.80;;;;;;6228504;28;80490;-63
2021/10/02 12:19:41;;;;;;;14.15;9.43;;;25.10;45.30;;;;;;6223767;28;80731;-62
2021/10/02 12:22:41;;;;;;;12.88;9.57;;;25.00;44.50;;;;;;6227719;28;81157;-62
2021/10/02 12:25:42;;;;;;;13.30;10.32;;;25.00;45.00;;;;;;6227790;28;80951;-63
2021/10/02 12:28:42;;;;;;;13.30;9.85;;;25.00;44.70;;;;;;6227028;27;82672;-64
2021/10/02 12:31:43;;;;;;;13.25;9.98;;;25.00;44.20;;;;;;6230352;28;85859;-64
2021/10/02 12:34:44;;;;;;;10.80;8.90;;;25.00;45.00;;;;;;6221088;28;83307;-64
2021/10/02 12:37:45;;;;;;;10.32;9.25;;;25.00;44.90;;;;;;6231117;28;85088;-64
2021/10/02 12:40:46;;;;;;;15.45;9.52;;;24.90;44.60;;;;;;6225485;28;81260;-64
2021/10/02 12:43:46;;;;;;;18.25;14.32;;;24.90;44.60;;;;;;6226940;28;80694;-64
2021/10/02 12:46:47;;;;;;;17.85;11.30;;;24.90;43.80;;;;;;6228061;28;83635;-63
2021/10/02 12:49:47;;;;;;;13.00;10.05;;;24.90;44.80;;;;;;6222025;28;84474;-65
2021/10/02 12:52:47;;;;;;;11.88;9.27;;;24.80;44.80;;;;;;6227832;28;82654;-63
2021/10/02 12:55:48;;;;;;;12.40;9.82;;;24.80;44.40;;;;;;6223115;28;84062;-63
2021/10/02 12:58:49;;;;;;;17.65;8.88;;;24.80;44.70;;;;;;6227364;28;80590;-63
2021/10/02 13:01:49;;;;;;;11.93;9.65;;;24.80;44.70;;;;;;6229302;28;80602;-63
2021/10/02 13:04:50;;;;;;;12.48;10.20;;;24.80;44.70;;;;;;6230278;27;84008;-63
2021/10/02 13:07:50;;;;;;;14.98;9.43;;;24.80;44.90;;;;;;6228198;28;83676;-66
2021/10/02 13:10:51;;;;;;;18.77;9.88;;;24.80;44.60;;;;;;6231079;28;81887;-66
2021/10/02 13:13:51;;;;;;;11.30;9.10;;;24.80;43.70;;;;;;6229359;27;81585;-62
2021/10/02 13:16:52;;;;;;;11.23;8.25;;;24.70;42.70;;;;;;6232133;28;81646;-63
2021/10/02 13:19:52;;;;;;;11.35;8.93;;;24.70;42.70;;;;;;6226246;28;81172;-62
2021/10/02 13:22:53;;;;;;;17.10;9.80;;;24.60;42.80;;;;;;6227566;28;82073;-62
2021/10/02 13:25:53;;;;;;;14.15;9.30;;;24.70;43.00;;;;;;6226082;28;81437;-62
2021/10/02 13:28:54;;;;;;;17.00;9.40;;;24.60;42.00;;;;;;6226152;27;80146;-62
2021/10/02 13:31:54;;;;;;;14.13;8.48;;;24.50;42.40;;;;;;6224347;27;81618;-62
2021/10/02 13:34:55;;;;;;;11.07;8.75;;;24.60;42.10;;;;;;6217336;27;81448;-63
2021/10/02 13:37:55;;;;;;;11.80;8.68;;;24.60;42.40;;;;;;6224710;28;82213;-64
2021/10/02 13:40:58;;;;;;;12.00;8.90;;;24.60;42.10;;;;;;6222499;28;80510;-63
2021/10/02 13:43:59;;;;;;;15.10;8.30;;;24.60;42.30;;;;;;6222190;27;80723;-61
2021/10/02 13:47:00;;;;;;;10.98;8.25;;;24.70;42.50;;;;;;6223387;28;81075;-63
2021/10/02 13:50:00;;;;;;;13.73;8.98;;;24.70;42.80;;;;;;6228209;27;82489;-63
2021/10/02 13:53:01;;;;;;;13.52;8.60;;;24.70;42.30;;;;;;6227174;27;80898;-63
2021/10/02 13:56:01;;;;;;;9.70;8.35;;;24.60;41.90;;;;;;6235213;27;80112;-63
2021/10/02 13:59:02;;;;;;;10.88;8.02;;;24.60;41.90;;;;;;6233507;28;80458;-62
2021/10/02 14:02:02;;;;;;;12.45;8.73;;;24.60;41.50;;;;;;6232478;27;80211;-63
2021/10/02 14:05:03;;;;;;;10.75;8.25;;;24.50;41.40;;;;;;6232631;28;83285;-63
2021/10/02 14:08:03;;;;;;;10.25;8.70;;;24.50;41.70;;;;;;6225908;27;80541;-63
2021/10/02 14:11:04;;;;;;;11.25;8.10;;;24.50;41.70;;;;;;6230933;27;80218;-62
2021/10/02 14:14:04;;;;;;;11.90;8.57;;;24.50;41.40;;;;;;6230366;27;80787;-62
2021/10/02 14:17:05;;;;;;;11.30;8.25;;;24.50;41.30;;;;;;6225128;28;80863;-63
2021/10/02 14:20:05;;;;;;;13.80;8.40;;;24.40;40.90;;;;;;6226477;27;80409;-62
2021/10/02 14:23:06;;;;;;;11.80;8.70;;;24.40;41.40;;;;;;6230769;27;81389;-63
2021/10/02 14:26:06;;;;;;;12.07;8.90;;;24.50;41.80;;;;;;6233370;28;81049;-63
2021/10/02 14:29:07;;;;;;;12.07;8.75;;;24.50;42.20;;;;;;6229555;28;80709;-63
2021/10/02 14:32:07;;;;;;;12.10;8.93;;;24.60;42.70;;;;;;6231377;27;80568;-64
2021/10/02 14:35:08;;;;;;;11.88;8.77;;;24.60;42.50;;;;;;6235538;27;80465;-63
2021/10/02 14:38:09;;;;;;;46.67;20.70;;;24.60;43.00;;;;;;6234747;27;81146;-62
2021/10/02 14:41:09;;;;;;;155.95;52.83;;;24.60;42.80;;;;;;6226746;27;83075;-63
2021/10/02 14:44:10;;;;;;;142.02;52.83;;;24.70;43.40;;;;;;6218685;28;90299;-65
2021/10/02 14:47:11;;;;;;;125.72;51.42;;;24.70;43.40;;;;;;6210338;28;83951;-63
2021/10/02 14:50:12;;;;;;;195.57;74.50;;;24.70;43.40;;;;;;6225847;27;84144;-62
2021/10/02 14:53:12;;;;;;;154.45;59.42;;;24.70;43.80;;;;;;6226718;27;84122;-65
2021/10/02 14:56:13;;;;;;;113.50;45.30;;;24.60;43.90;;;;;;6229076;27;83150;-62
2021/10/02 14:59:13;;;;;;;110.57;45.20;;;24.70;43.90;;;;;;6222281;28;83482;-64
2021/10/02 15:02:15;;;;;;;102.18;39.40;;;24.60;44.70;;;;;;6218747;28;85197;-67
2021/10/02 15:05:15;;;;;;;95.45;34.83;;;24.60;44.40;;;;;;6224665;28;83316;-64
2021/10/02 15:08:16;;;;;;;81.85;32.83;;;24.70;44.50;;;;;;6219156;27;84795;-64
2021/10/02 15:11:17;;;;;;;91.88;31.83;;;24.70;44.50;;;;;;6219772;27;84008;-64
2021/10/02 15:14:17;;;;;;;69.63;26.50;;;24.70;45.00;;;;;;6218293;28;85488;-63
2021/10/02 15:17:18;;;;;;;64.07;27.50;;;24.70;45.20;;;;;;6220387;27;83319;-64
2021/10/02 15:20:18;;;;;;;58.47;26.02;;;24.60;45.50;;;;;;6218934;28;83714;-64
2021/10/02 15:23:19;;;;;;;62.15;25.85;;;24.60;45.80;;;;;;6219607;28;84418;-63
2021/10/02 15:26:19;;;;;;;51.58;22.20;;;24.60;46.00;;;;;;6223539;28;83374;-64
2021/10/02 15:29:20;;;;;;;48.97;22.98;;;24.50;46.50;;;;;;6223786;28;83524;-64
2021/10/02 15:32:20;;;;;;;35.70;18.63;;;24.60;46.90;;;;;;6217591;28;83208;-65
2021/10/02 15:35:21;;;;;;;35.50;18.15;;;24.60;46.80;;;;;;6224839;27;85417;-66
2021/10/02 15:38:21;;;;;;;33.35;16.77;;;24.50;46.70;;;;;;6222639;28;83317;-64
2021/10/02 15:41:22;;;;;;;26.83;14.40;;;24.50;46.70;;;;;;6225756;28;84220;-66
2021/10/02 15:44:22;;;;;;;31.52;15.35;;;24.50;46.80;;;;;;6224750;27;83259;-66
2021/10/02 15:47:23;;;;;;;25.30;14.00;;;24.50;46.70;;;;;;6218344;27;83901;-66
2021/10/02 15:50:25;;;;;;;22.05;12.82;;;24.50;46.70;;;;;;6221465;28;83027;-65
2021/10/02 15:53:26;;;;;;;26.17;13.23;;;24.50;46.90;;;;;;6221473;28;84079;-65
2021/10/02 15:56:27;;;;;;;21.50;12.65;;;24.40;47.00;;;;;;6223275;28;82970;-64
2021/10/02 15:59:27;;;;;;;19.67;13.30;;;24.40;46.80;;;;;;6220741;28;83153;-66
2021/10/02 16:02:28;;;;;;;28.05;14.63;;;24.40;46.70;;;;;;6223533;28;83207;-67
2021/10/02 16:05:28;;;;;;;26.98;15.23;;;24.40;47.20;;;;;;6230193;28;84371;-65
2021/10/02 16:08:29;;;;;;;26.67;15.13;;;24.40;46.70;;;;;;6221732;28;84295;-64
2021/10/02 16:11:29;;;;;;;27.02;14.25;;;24.40;47.20;;;;;;6231221;27;83227;-64
2021/10/02 16:14:30;;;;;;;29.75;15.20;;;24.30;47.30;;;;;;6230413;27;83601;-65
2021/10/02 16:17:30;;;;;;;24.17;15.35;;;24.30;47.50;;;;;;6230680;28;82892;-67
2021/10/02 16:20:31;;;;;;;27.25;16.13;;;24.40;47.50;;;;;;6231109;28;83216;-66